createdAt,value
2022-10-12T00:00:17.702Z,5.3
2022-10-12T00:01:18.296Z,4.5
2022-10-12T00:02:18.931Z,5.3
2022-10-12T00:03:19.522Z,4.3
2022-10-12T00:04:20.115Z,5.0
2022-10-12T00:05:20.711Z,4.2
2022-10-12T00:06:21.304Z,4.1
2022-10-12T00:07:21.898Z,4.1
2022-10-12T00:08:22.492Z,4.7
2022-10-12T00:09:23.085Z,5.4
2022-10-12T00:10:23.679Z,5.8
2022-10-12T00:11:24.277Z,4.5
2022-10-12T00:12:24.870Z,4.9
2022-10-12T00:13:25.465Z,5.0
2022-10-12T00:14:26.058Z,4.7
2022-10-12T00:15:26.656Z,4.8
2022-10-12T00:16:27.248Z,5.3
2022-10-12T00:17:27.844Z,5.9
2022-10-12T00:18:28.438Z,5.5
2022-10-12T00:19:29.033Z,5.9
2022-10-12T00:20:29.625Z,5.5
2022-10-12T00:21:30.220Z,5.8
2022-10-12T00:22:30.816Z,5.8
2022-10-12T00:23:31.409Z,6.7
2022-10-12T00:24:32.004Z,7.4
2022-10-12T00:25:32.601Z,6.5
2022-10-12T00:26:33.193Z,6.1
2022-10-12T00:27:33.789Z,6.1
2022-10-12T00:28:34.436Z,6.8
2022-10-12T00:29:35.017Z,6.5
2022-10-12T00:30:35.610Z,6.7
2022-10-12T00:31:36.208Z,6.5
2022-10-12T00:32:36.800Z,5.9
2022-10-12T00:33:37.418Z,6.3
2022-10-12T00:34:38.010Z,5.5
2022-10-12T00:35:38.719Z,6.4
2022-10-12T00:36:39.246Z,6.4
2022-10-12T00:37:40.180Z,6.2
2022-10-12T00:38:40.892Z,6.3
2022-10-12T00:39:41.488Z,5.8
2022-10-12T00:40:42.081Z,5.6
2022-10-12T00:41:42.698Z,6.4
2022-10-12T00:42:43.292Z,6.0
2022-10-12T00:43:43.887Z,5.5
2022-10-12T00:44:44.479Z,6.2
2022-10-12T00:45:45.091Z,5.4
2022-10-12T00:46:45.670Z,5.6
2022-10-12T00:47:46.265Z,6.3
2022-10-12T00:48:46.857Z,5.8
2022-10-12T00:49:47.451Z,5.5
2022-10-12T00:50:48.044Z,5.3
2022-10-12T00:51:48.640Z,4.6
2022-10-12T00:52:49.257Z,5.3
2022-10-12T00:53:49.850Z,5.6
2022-10-12T00:54:50.447Z,4.6
2022-10-12T00:55:51.038Z,4.9
2022-10-12T00:56:51.635Z,5.6
2022-10-12T00:57:52.248Z,5.1
2022-10-12T00:58:52.844Z,5.4
2022-10-12T00:59:53.437Z,5.2
2022-10-12T01:00:54.070Z,5.1
2022-10-12T01:01:54.626Z,6.0
2022-10-12T01:02:55.219Z,6.4
2022-10-12T01:03:55.815Z,5.8
2022-10-12T01:04:56.408Z,5.5
2022-10-12T01:05:57.003Z,5.8
2022-10-12T01:06:57.599Z,6.1
2022-10-12T01:07:58.193Z,6.0
2022-10-12T01:08:58.789Z,5.6
2022-10-12T01:09:59.379Z,5.6
2022-10-12T01:10:59.975Z,5.2
2022-10-12T01:12:00.570Z,5.5
2022-10-12T01:13:01.165Z,4.3
2022-10-12T01:14:01.759Z,4.6
2022-10-12T01:15:02.355Z,4.5
2022-10-12T01:16:02.947Z,4.8
2022-10-12T01:17:03.542Z,4.2
2022-10-12T01:18:04.138Z,4.9
2022-10-12T01:19:04.736Z,5.0
2022-10-12T01:20:05.330Z,4.2
2022-10-12T01:21:05.926Z,5.0
2022-10-12T01:22:06.520Z,4.9
2022-10-12T01:23:07.117Z,4.1
2022-10-12T01:24:07.710Z,4.6
2022-10-12T01:25:08.305Z,4.5
2022-10-12T01:26:08.898Z,3.9
2022-10-12T01:27:09.494Z,5.0
2022-10-12T01:28:10.129Z,3.6
2022-10-12T01:29:10.720Z,4.3
2022-10-12T01:30:11.293Z,4.0
2022-10-12T01:31:11.897Z,4.6
2022-10-12T01:32:12.480Z,4.2
2022-10-12T01:33:13.075Z,4.2
2022-10-12T01:34:13.669Z,4.3
2022-10-12T01:35:14.265Z,4.4
2022-10-12T01:36:14.856Z,4.8
2022-10-12T01:37:15.451Z,4.2
2022-10-12T01:38:16.048Z,3.9
2022-10-12T01:39:16.662Z,3.8
2022-10-12T01:40:17.255Z,4.1
2022-10-12T01:41:17.849Z,5.5
2022-10-12T01:42:18.444Z,5.2
2022-10-12T01:43:19.038Z,5.1
2022-10-12T01:44:19.634Z,4.5
2022-10-12T01:45:20.229Z,5.0
2022-10-12T01:46:20.842Z,4.1
2022-10-12T01:47:21.433Z,4.8
2022-10-12T01:48:22.027Z,4.4
2022-10-12T01:49:22.626Z,4.0
2022-10-12T01:50:23.216Z,4.8
2022-10-12T01:51:23.811Z,4.3
2022-10-12T01:52:24.405Z,4.5
2022-10-12T01:53:25.001Z,4.5
2022-10-12T01:54:25.590Z,4.5
2022-10-12T01:55:26.186Z,4.3
2022-10-12T01:56:26.779Z,4.0
2022-10-12T01:57:27.373Z,3.9
2022-10-12T01:58:27.966Z,4.2
2022-10-12T01:59:28.561Z,3.7
2022-10-12T02:00:29.156Z,3.9
2022-10-12T02:01:29.824Z,4.3
2022-10-12T02:02:30.396Z,3.8
2022-10-12T02:03:30.993Z,4.3
2022-10-12T02:04:31.604Z,4.0
2022-10-12T02:05:32.199Z,3.4
2022-10-12T02:06:32.813Z,4.0
2022-10-12T02:07:33.409Z,4.2
2022-10-12T02:08:33.999Z,3.8
2022-10-12T02:09:34.596Z,4.3
2022-10-12T02:10:35.187Z,3.7
2022-10-12T02:11:35.782Z,3.8
2022-10-12T02:12:36.374Z,3.6
2022-10-12T02:13:36.989Z,3.8
2022-10-12T02:14:37.585Z,3.8
2022-10-12T02:15:38.179Z,3.9
2022-10-12T02:16:38.772Z,3.6
2022-10-12T02:17:39.660Z,4.1
2022-10-12T02:18:40.446Z,4.1
2022-10-12T02:19:41.045Z,4.2
2022-10-12T02:20:41.637Z,3.2
2022-10-12T02:21:42.230Z,3.7
2022-10-12T02:22:42.824Z,3.4
2022-10-12T02:23:43.418Z,4.0
2022-10-12T02:24:44.015Z,3.4
2022-10-12T02:25:44.610Z,3.5
2022-10-12T02:26:45.206Z,4.1
2022-10-12T02:27:45.798Z,4.3
2022-10-12T02:28:46.428Z,4.2
2022-10-12T02:29:46.987Z,4.1
2022-10-12T02:30:47.579Z,3.8
2022-10-12T02:31:48.176Z,3.5
2022-10-12T02:32:48.772Z,4.3
2022-10-12T02:33:49.367Z,4.6
2022-10-12T02:34:49.963Z,3.9
2022-10-12T02:35:50.572Z,4.3
2022-10-12T02:36:51.167Z,4.2
2022-10-12T02:37:51.763Z,4.0
2022-10-12T02:38:52.359Z,4.2
2022-10-12T02:39:52.953Z,4.3
2022-10-12T02:40:53.546Z,3.8
2022-10-12T02:41:54.141Z,4.2
2022-10-12T02:43:11.428Z,3.9
2022-10-12T02:43:56.322Z,3.7
2022-10-12T02:44:56.916Z,4.2
2022-10-12T02:45:57.508Z,4.0
2022-10-12T02:46:58.104Z,4.8
2022-10-12T02:47:58.699Z,4.0
2022-10-12T02:48:59.291Z,4.1
2022-10-12T02:49:59.884Z,4.1
2022-10-12T02:51:00.476Z,4.1
2022-10-12T02:52:01.108Z,4.5
2022-10-12T02:53:01.688Z,4.6
2022-10-12T02:54:02.282Z,4.6
2022-10-12T02:55:02.876Z,4.2
2022-10-12T02:56:03.470Z,4.0
2022-10-12T02:57:04.082Z,4.4
2022-10-12T02:58:04.677Z,4.5
2022-10-12T02:59:05.271Z,4.4
2022-10-12T03:00:05.864Z,3.9
2022-10-12T03:01:06.499Z,4.1
2022-10-12T03:02:07.083Z,3.6
2022-10-12T03:03:07.678Z,4.3
2022-10-12T03:04:08.272Z,4.0
2022-10-12T03:05:08.869Z,3.7
2022-10-12T03:06:09.467Z,3.3
2022-10-12T03:07:10.061Z,3.4
2022-10-12T03:08:10.675Z,3.5
2022-10-12T03:09:11.269Z,4.2
2022-10-12T03:10:11.864Z,3.6
2022-10-12T03:11:12.480Z,4.1
2022-10-12T03:12:13.074Z,3.6
2022-10-12T03:13:13.666Z,3.5
2022-10-12T03:14:14.263Z,3.4
2022-10-12T03:15:14.858Z,3.7
2022-10-12T03:16:15.471Z,3.6
2022-10-12T03:17:16.063Z,3.6
2022-10-12T03:18:16.658Z,3.3
2022-10-12T03:19:17.251Z,3.9
2022-10-12T03:20:17.848Z,3.8
2022-10-12T03:21:18.441Z,4.1
2022-10-12T03:22:19.033Z,3.4
2022-10-12T03:23:19.627Z,3.3
2022-10-12T03:24:20.239Z,4.2
2022-10-12T03:25:20.831Z,4.2
2022-10-12T03:26:21.428Z,3.5
2022-10-12T03:27:22.018Z,3.6
2022-10-12T03:28:22.675Z,3.5
2022-10-12T03:29:23.242Z,4.1
2022-10-12T03:30:23.838Z,3.6
2022-10-12T03:31:24.430Z,3.6
2022-10-12T03:32:25.043Z,4.1
2022-10-12T03:33:25.639Z,4.5
2022-10-12T03:34:26.235Z,3.6
2022-10-12T03:35:26.831Z,3.5
2022-10-12T03:36:27.425Z,3.8
2022-10-12T03:37:28.018Z,3.8
2022-10-12T03:38:28.613Z,3.8
2022-10-12T03:39:29.208Z,4.1
2022-10-12T03:40:29.802Z,3.7
2022-10-12T03:41:30.398Z,4.0
2022-10-12T03:42:30.995Z,3.8
2022-10-12T03:43:31.590Z,3.8
2022-10-12T03:44:32.186Z,4.7
2022-10-12T03:45:32.778Z,4.4
2022-10-12T03:46:33.374Z,3.7
2022-10-12T03:47:33.968Z,3.4
2022-10-12T03:48:34.562Z,4.3
2022-10-12T03:49:35.155Z,3.5
2022-10-12T03:50:35.751Z,4.5
2022-10-12T03:51:36.342Z,4.1
2022-10-12T03:52:36.956Z,3.7
2022-10-12T03:53:40.720Z,4.0
2022-10-12T03:54:38.160Z,4.3
2022-10-12T03:55:38.756Z,3.8
2022-10-12T03:56:39.350Z,4.2
2022-10-12T03:57:40.421Z,4.0
2022-10-12T03:58:41.220Z,4.7
2022-10-12T03:59:41.822Z,3.6
2022-10-12T04:00:42.417Z,3.5
2022-10-12T04:01:43.101Z,4.2
2022-10-12T04:02:43.684Z,4.1
2022-10-12T04:03:44.271Z,4.1
2022-10-12T04:04:44.866Z,4.2
2022-10-12T04:05:45.473Z,3.7
2022-10-12T04:06:46.053Z,4.0
2022-10-12T04:07:46.646Z,3.4
2022-10-12T04:08:50.853Z,3.7
2022-10-12T04:09:48.828Z,3.6
2022-10-12T04:10:49.419Z,3.5
2022-10-12T04:11:50.014Z,4.0
2022-10-12T04:12:50.609Z,3.9
2022-10-12T04:13:51.202Z,3.7
2022-10-12T04:14:51.796Z,3.3
2022-10-12T04:15:52.388Z,4.0
2022-10-12T04:16:53.001Z,3.4
2022-10-12T04:17:53.599Z,4.6
2022-10-12T04:18:54.189Z,4.6
2022-10-12T04:19:54.781Z,4.7
2022-10-12T04:20:55.377Z,3.9
2022-10-12T04:21:55.968Z,3.5
2022-10-12T04:22:56.563Z,4.2
2022-10-12T04:23:57.158Z,4.1
2022-10-12T04:24:57.755Z,3.4
2022-10-12T04:25:58.345Z,3.8
2022-10-12T04:26:58.940Z,4.6
2022-10-12T04:27:59.534Z,4.3
2022-10-12T04:29:00.131Z,3.3
2022-10-12T04:30:00.726Z,3.4
2022-10-12T04:31:01.319Z,4.0
2022-10-12T04:32:01.931Z,3.8
2022-10-12T04:33:02.525Z,3.5
2022-10-12T04:34:03.119Z,4.2
2022-10-12T04:35:03.716Z,3.7
2022-10-12T04:36:04.314Z,4.4
2022-10-12T04:37:04.908Z,4.4
2022-10-12T04:38:05.497Z,3.4
2022-10-12T04:39:06.092Z,4.0
2022-10-12T04:40:06.685Z,3.9
2022-10-12T04:41:07.280Z,3.9
2022-10-12T04:42:07.874Z,3.2
2022-10-12T04:43:08.479Z,3.8
2022-10-12T04:44:09.081Z,3.0
2022-10-12T04:45:09.678Z,3.5
2022-10-12T04:46:10.274Z,3.7
2022-10-12T04:47:10.868Z,3.9
2022-10-12T04:48:11.459Z,3.7
2022-10-12T04:49:12.053Z,2.8
2022-10-12T04:50:12.646Z,3.8
2022-10-12T04:51:13.239Z,4.2
2022-10-12T04:52:13.833Z,3.5
2022-10-12T04:53:14.428Z,3.3
2022-10-12T04:54:15.018Z,3.9
2022-10-12T04:55:15.613Z,3.3
2022-10-12T04:56:16.206Z,3.4
2022-10-12T04:57:16.800Z,3.5
2022-10-12T04:58:17.395Z,3.7
2022-10-12T04:59:18.006Z,3.5
2022-10-12T05:00:18.598Z,3.9
2022-10-12T05:01:19.257Z,3.3
2022-10-12T05:02:19.787Z,3.6
2022-10-12T05:03:20.399Z,3.6
2022-10-12T05:04:21.019Z,4.3
2022-10-12T05:05:21.594Z,3.5
2022-10-12T05:06:22.187Z,4.2
2022-10-12T05:07:22.785Z,3.7
2022-10-12T05:08:23.374Z,3.4
2022-10-12T05:09:23.988Z,4.4
2022-10-12T05:10:24.579Z,3.9
2022-10-12T05:11:25.174Z,3.9
2022-10-12T05:12:25.771Z,4.0
2022-10-12T05:13:26.364Z,3.7
2022-10-12T05:14:26.958Z,3.5
2022-10-12T05:15:27.554Z,4.1
2022-10-12T05:16:28.147Z,4.2
2022-10-12T05:17:28.744Z,3.7
2022-10-12T05:18:29.338Z,3.0
2022-10-12T05:19:29.932Z,3.4
2022-10-12T05:20:30.573Z,3.6
2022-10-12T05:21:31.164Z,3.3
2022-10-12T05:22:31.810Z,4.1
2022-10-12T05:23:32.404Z,3.4
2022-10-12T05:24:33.000Z,3.0
2022-10-12T05:25:33.616Z,3.4
2022-10-12T05:26:34.211Z,3.6
2022-10-12T05:27:34.812Z,3.2
2022-10-12T05:28:40.641Z,3.8
2022-10-12T05:29:36.012Z,3.1
2022-10-12T05:30:36.609Z,3.6
2022-10-12T05:31:37.208Z,3.9
2022-10-12T05:32:38.076Z,3.4
2022-10-12T05:33:38.784Z,3.0
2022-10-12T05:34:39.380Z,3.9
2022-10-12T05:35:43.943Z,3.8
2022-10-12T05:36:41.566Z,3.2
2022-10-12T05:37:42.163Z,3.7
2022-10-12T05:38:42.761Z,4.2
2022-10-12T05:39:43.365Z,3.6
2022-10-12T05:40:43.976Z,4.0
2022-10-12T05:41:44.572Z,3.4
2022-10-12T05:42:45.171Z,3.7
2022-10-12T05:43:45.768Z,3.4
2022-10-12T05:44:46.367Z,3.6
2022-10-12T05:45:46.964Z,2.7
2022-10-12T05:46:47.565Z,3.2
2022-10-12T05:47:48.158Z,3.7
2022-10-12T05:48:48.760Z,3.6
2022-10-12T05:49:49.353Z,3.6
2022-10-12T05:50:49.953Z,2.7
2022-10-12T05:51:50.550Z,3.2
2022-10-12T05:52:51.152Z,3.5
2022-10-12T05:53:51.748Z,2.8
2022-10-12T05:54:52.350Z,3.2
2022-10-12T05:55:52.945Z,2.9
2022-10-12T05:56:53.548Z,2.7
2022-10-12T05:57:54.148Z,2.6
2022-10-12T05:58:54.781Z,3.9
2022-10-12T05:59:55.378Z,3.0
2022-10-12T06:00:56.000Z,3.4
2022-10-12T06:01:56.613Z,3.5
2022-10-12T06:02:57.192Z,3.5
2022-10-12T06:03:57.789Z,3.4
2022-10-12T06:04:58.388Z,3.7
2022-10-12T06:05:58.986Z,4.0
2022-10-12T06:06:59.586Z,3.2
2022-10-12T06:08:00.184Z,3.4
2022-10-12T06:09:00.785Z,3.7
2022-10-12T06:10:01.383Z,3.9
2022-10-12T06:11:01.984Z,4.0
2022-10-12T06:12:02.589Z,4.1
2022-10-12T06:13:03.205Z,3.5
2022-10-12T06:14:03.806Z,3.6
2022-10-12T06:15:04.436Z,3.3
2022-10-12T06:16:05.031Z,3.4
2022-10-12T06:17:05.634Z,3.4
2022-10-12T06:18:06.233Z,3.6
2022-10-12T06:19:06.837Z,3.3
2022-10-12T06:20:07.431Z,3.3
2022-10-12T06:21:31.968Z,3.4
2022-10-12T06:22:09.520Z,3.3
2022-10-12T06:23:10.121Z,3.0
2022-10-12T06:24:10.721Z,3.9
2022-10-12T06:25:11.321Z,3.2
2022-10-12T06:26:11.942Z,3.7
2022-10-12T06:27:12.542Z,3.2
2022-10-12T06:28:13.162Z,3.5
2022-10-12T06:29:13.740Z,3.9
2022-10-12T06:30:14.339Z,3.9
2022-10-12T06:31:14.938Z,3.6
2022-10-12T06:32:15.537Z,2.7
2022-10-12T06:33:16.134Z,3.0
2022-10-12T06:34:16.733Z,3.2
2022-10-12T06:35:17.333Z,3.2
2022-10-12T06:36:17.935Z,2.6
2022-10-12T06:37:44.348Z,2.6
2022-10-12T06:38:20.119Z,3.0
2022-10-12T06:39:20.720Z,3.3
2022-10-12T06:40:21.310Z,2.8
2022-10-12T06:41:21.909Z,2.7
2022-10-12T06:42:22.503Z,2.6
2022-10-12T06:43:23.100Z,2.6
2022-10-12T06:44:23.698Z,2.4
2022-10-12T06:45:24.295Z,2.4
2022-10-12T06:46:24.893Z,2.2
2022-10-12T06:47:25.510Z,2.2
2022-10-12T06:48:26.136Z,3.0
2022-10-12T06:49:26.746Z,2.0
2022-10-12T06:50:27.344Z,2.6
2022-10-12T06:51:27.942Z,2.5
2022-10-12T06:52:28.545Z,2.4
2022-10-12T06:53:29.137Z,2.5
2022-10-12T06:54:29.732Z,1.8
2022-10-12T06:55:30.332Z,2.3
2022-10-12T06:56:30.929Z,2.4
2022-10-12T06:57:31.547Z,2.1
2022-10-12T06:58:32.145Z,2.0
2022-10-12T06:59:32.743Z,2.0
2022-10-12T07:00:33.360Z,2.2
2022-10-12T07:01:34.030Z,2.4
2022-10-12T07:02:34.617Z,2.5
2022-10-12T07:03:35.214Z,2.1
2022-10-12T07:04:35.814Z,2.3
2022-10-12T07:05:36.414Z,1.9
2022-10-12T07:06:37.013Z,1.8
2022-10-12T07:07:37.611Z,1.9
2022-10-12T07:08:38.210Z,2.2
2022-10-12T07:09:38.809Z,2.2
2022-10-12T07:10:39.411Z,2.2
2022-10-12T07:11:40.010Z,2.1
2022-10-12T07:12:40.806Z,1.8
2022-10-12T07:13:41.220Z,2.1
2022-10-12T07:14:41.819Z,1.8
2022-10-12T07:15:42.438Z,2.1
2022-10-12T07:16:43.058Z,2.3
2022-10-12T07:17:43.660Z,1.8
2022-10-12T07:18:44.260Z,1.8
2022-10-12T07:19:44.856Z,2.3
2022-10-12T07:20:45.454Z,1.7
2022-10-12T07:21:46.054Z,1.7
2022-10-12T07:22:46.652Z,1.9
2022-10-12T07:23:47.264Z,2.1
2022-10-12T07:24:47.849Z,1.9
2022-10-12T07:25:48.448Z,2.0
2022-10-12T07:26:49.049Z,2.2
2022-10-12T07:27:49.653Z,2.3
2022-10-12T07:28:50.288Z,2.0
2022-10-12T07:29:50.872Z,1.7
2022-10-12T07:30:51.468Z,2.1
2022-10-12T07:31:52.191Z,2.3
2022-10-12T07:32:52.730Z,1.8
2022-10-12T07:33:53.330Z,2.5
2022-10-12T07:34:53.928Z,1.8
2022-10-12T07:36:12.882Z,1.9
2022-10-12T07:36:59.502Z,2.4
2022-10-12T07:37:57.713Z,2.2
2022-10-12T07:38:58.332Z,2.4
2022-10-12T07:39:58.934Z,2.6
2022-10-12T07:40:59.530Z,1.8
2022-10-12T07:42:00.132Z,2.3
2022-10-12T07:43:15.297Z,1.8
2022-10-12T07:44:02.346Z,1.9
2022-10-12T07:45:02.950Z,2.1
2022-10-12T07:46:03.550Z,2.2
2022-10-12T07:47:04.149Z,2.3
2022-10-12T07:48:04.749Z,2.4
2022-10-12T07:49:05.346Z,2.2
2022-10-12T07:50:05.946Z,2.4
2022-10-12T07:51:06.555Z,1.9
2022-10-12T07:52:07.141Z,2.3
2022-10-12T07:53:07.740Z,2.2
2022-10-12T07:54:08.359Z,2.4
2022-10-12T07:55:08.958Z,2.2
2022-10-12T07:56:09.560Z,2.1
2022-10-12T07:57:10.159Z,2.2
2022-10-12T07:58:10.758Z,2.3
2022-10-12T07:59:11.358Z,2.0
2022-10-12T08:00:11.957Z,2.9
2022-10-12T08:01:12.621Z,3.0
2022-10-12T08:02:13.264Z,2.6
2022-10-12T08:03:13.847Z,3.1
2022-10-12T08:04:14.446Z,2.7
2022-10-12T08:05:15.046Z,2.5
2022-10-12T08:06:15.668Z,2.4
2022-10-12T08:07:16.264Z,2.5
2022-10-12T08:08:16.865Z,2.3
2022-10-12T08:09:17.462Z,2.2
2022-10-12T08:10:18.062Z,2.5
2022-10-12T08:11:18.663Z,2.4
2022-10-12T08:12:19.267Z,3.1
2022-10-12T08:13:19.861Z,2.2
2022-10-12T08:14:20.459Z,2.5
2022-10-12T08:15:21.075Z,3.3
2022-10-12T08:16:21.677Z,3.1
2022-10-12T08:17:22.274Z,2.2
2022-10-12T08:18:22.873Z,2.3
2022-10-12T08:19:23.470Z,2.9
2022-10-12T08:20:24.069Z,2.5
2022-10-12T08:21:24.668Z,2.4
2022-10-12T08:22:25.271Z,2.9
2022-10-12T08:23:25.865Z,2.5
2022-10-12T08:24:26.468Z,2.1
2022-10-12T08:25:27.068Z,2.5
2022-10-12T08:26:27.668Z,2.5
2022-10-12T08:27:28.266Z,2.3
2022-10-12T08:28:28.936Z,2.7
2022-10-12T08:29:29.491Z,2.6
2022-10-12T08:30:30.108Z,2.9
2022-10-12T08:31:30.708Z,3.1
2022-10-12T08:32:31.330Z,3.1
2022-10-12T08:33:31.937Z,2.5
2022-10-12T08:34:32.533Z,2.4
2022-10-12T08:35:33.132Z,2.3
2022-10-12T08:36:33.736Z,2.7
2022-10-12T08:37:34.358Z,2.6
2022-10-12T08:38:34.956Z,2.4
2022-10-12T08:39:35.554Z,2.4
2022-10-12T08:40:36.155Z,3.1
2022-10-12T08:41:36.756Z,2.5
2022-10-12T08:42:37.380Z,2.3
2022-10-12T08:43:37.981Z,2.4
2022-10-12T08:44:38.582Z,2.7
2022-10-12T08:45:39.181Z,2.7
2022-10-12T08:46:39.782Z,2.9
2022-10-12T08:47:40.961Z,2.6
2022-10-12T08:48:41.888Z,2.3
2022-10-12T08:49:45.188Z,2.7
2022-10-12T08:50:44.113Z,3.1
2022-10-12T08:51:44.685Z,2.8
2022-10-12T08:52:45.284Z,3.0
2022-10-12T08:53:45.887Z,2.0
2022-10-12T08:54:46.487Z,3.0
2022-10-12T08:55:47.091Z,3.2
2022-10-12T08:56:47.692Z,2.7
2022-10-12T08:57:50.046Z,2.4
2022-10-12T08:58:49.885Z,3.0
2022-10-12T08:59:50.506Z,3.1
2022-10-12T09:00:51.108Z,2.8
2022-10-12T09:01:51.791Z,2.3
2022-10-12T09:02:52.341Z,2.9
2022-10-12T09:03:52.940Z,2.3
2022-10-12T09:04:53.545Z,3.0
2022-10-12T09:05:54.143Z,2.5
2022-10-12T09:06:54.762Z,2.9
2022-10-12T09:07:55.364Z,2.3
2022-10-12T09:08:55.967Z,2.2
2022-10-12T09:09:56.568Z,2.7
2022-10-12T09:10:57.170Z,2.3
2022-10-12T09:11:57.771Z,2.4
2022-10-12T09:12:58.371Z,3.0
2022-10-12T09:13:58.972Z,2.4
2022-10-12T09:14:59.575Z,2.9
2022-10-12T09:16:00.196Z,2.6
2022-10-12T09:17:00.818Z,3.0
2022-10-12T09:18:01.417Z,3.1
2022-10-12T09:19:02.017Z,2.5
2022-10-12T09:20:02.619Z,2.8
2022-10-12T09:21:03.216Z,2.9
2022-10-12T09:22:03.816Z,2.7
2022-10-12T09:23:04.432Z,2.7
2022-10-12T09:24:05.034Z,2.9
2022-10-12T09:25:05.639Z,2.8
2022-10-12T09:26:06.239Z,3.0
2022-10-12T09:27:06.840Z,3.0
2022-10-12T09:28:07.440Z,3.6
2022-10-12T09:29:08.041Z,2.9
2022-10-12T09:30:08.664Z,2.7
2022-10-12T09:31:09.261Z,2.8
2022-10-12T09:32:09.864Z,2.8
2022-10-12T09:33:10.464Z,2.5
2022-10-12T09:34:14.386Z,2.6
2022-10-12T09:35:11.738Z,3.1
2022-10-12T09:36:12.322Z,2.5
2022-10-12T09:37:12.921Z,2.4
2022-10-12T09:38:13.522Z,2.0
2022-10-12T09:39:14.123Z,2.2
2022-10-12T09:40:14.766Z,2.3
2022-10-12T09:41:15.330Z,2.4
2022-10-12T09:42:15.933Z,2.2
2022-10-12T09:43:16.534Z,2.5
2022-10-12T09:44:17.132Z,2.4
2022-10-12T09:45:18.067Z,2.5
2022-10-12T09:46:18.748Z,2.5
2022-10-12T09:47:19.348Z,3.1
2022-10-12T09:48:19.947Z,2.4
2022-10-12T09:49:20.547Z,3.0
2022-10-12T09:50:21.182Z,2.3
2022-10-12T09:51:21.840Z,2.5
2022-10-12T09:52:22.440Z,2.6
2022-10-12T09:53:23.042Z,3.0
2022-10-12T09:54:23.663Z,3.0
2022-10-12T09:55:24.309Z,2.0
2022-10-12T09:56:24.878Z,2.9
2022-10-12T09:57:25.476Z,2.3
2022-10-12T09:58:26.076Z,2.1
2022-10-12T09:59:26.679Z,2.0
2022-10-12T10:00:27.283Z,1.7
2022-10-12T10:01:27.928Z,1.6
2022-10-12T10:02:28.486Z,2.0
2022-10-12T10:03:30.761Z,2.2
2022-10-12T10:04:29.708Z,2.8
2022-10-12T10:05:30.301Z,2.6
2022-10-12T10:06:30.902Z,2.6
2022-10-12T10:07:31.500Z,2.2
2022-10-12T10:08:32.102Z,2.5
2022-10-12T10:09:32.704Z,3.1
2022-10-12T10:10:33.312Z,2.7
2022-10-12T10:11:33.906Z,2.2
2022-10-12T10:12:34.510Z,2.0
2022-10-12T10:13:35.110Z,1.8
2022-10-12T10:14:35.712Z,2.2
2022-10-12T10:15:36.314Z,2.1
2022-10-12T10:16:36.916Z,2.3
2022-10-12T10:17:37.517Z,1.8
2022-10-12T10:18:38.120Z,2.7
2022-10-12T10:19:38.721Z,1.9
2022-10-12T10:20:39.324Z,1.9
2022-10-12T10:21:40.027Z,1.9
2022-10-12T10:22:40.628Z,2.0
2022-10-12T10:23:41.230Z,1.6
2022-10-12T10:24:41.832Z,2.0
2022-10-12T10:25:42.453Z,1.8
2022-10-12T10:26:43.057Z,1.6
2022-10-12T10:27:43.655Z,2.4
2022-10-12T10:28:44.310Z,2.0
2022-10-12T10:29:44.882Z,1.9
2022-10-12T10:30:45.749Z,1.9
2022-10-12T10:31:46.116Z,1.7
2022-10-12T10:32:46.700Z,2.1
2022-10-12T10:33:47.301Z,2.3
2022-10-12T10:34:47.902Z,2.1
2022-10-12T10:35:50.122Z,1.8
2022-10-12T10:36:50.095Z,2.2
2022-10-12T10:37:50.694Z,2.0
2022-10-12T10:38:51.305Z,2.2
2022-10-12T10:39:51.918Z,1.8
2022-10-12T10:40:52.524Z,2.1
2022-10-12T10:41:53.477Z,2.0
2022-10-12T10:42:53.993Z,1.7
2022-10-12T10:43:54.594Z,1.6
2022-10-12T10:44:55.201Z,2.2
2022-10-12T10:45:55.801Z,1.8
2022-10-12T10:46:56.396Z,1.9
2022-10-12T10:47:56.996Z,2.0
2022-10-12T10:48:57.597Z,1.6
2022-10-12T10:49:58.198Z,1.9
2022-10-12T10:50:58.802Z,1.4
2022-10-12T10:51:59.403Z,2.3
2022-10-12T10:53:00.032Z,2.1
2022-10-12T10:54:00.624Z,1.9
2022-10-12T10:55:01.227Z,1.8
2022-10-12T10:56:01.826Z,1.8
2022-10-12T10:57:02.429Z,1.7
2022-10-12T10:58:03.030Z,2.1
2022-10-12T10:59:09.047Z,2.3
2022-10-12T11:00:26.498Z,1.7
2022-10-12T11:01:06.825Z,2.2
2022-10-12T11:02:07.446Z,2.1
2022-10-12T11:03:08.128Z,1.5
2022-10-12T11:04:08.688Z,1.9
2022-10-12T11:05:09.306Z,2.2
2022-10-12T11:06:09.906Z,1.8
2022-10-12T11:07:10.509Z,1.8
2022-10-12T11:08:11.110Z,2.1
2022-10-12T11:09:11.714Z,1.7
2022-10-12T11:10:12.316Z,1.6
2022-10-12T11:11:12.936Z,2.2
2022-10-12T11:12:13.535Z,1.8
2022-10-12T11:13:14.137Z,1.8
2022-10-12T11:14:14.746Z,1.5
2022-10-12T11:15:15.341Z,2.0
2022-10-12T11:16:15.943Z,1.5
2022-10-12T11:17:16.567Z,2.2
2022-10-12T11:18:17.167Z,1.9
2022-10-12T11:19:17.768Z,1.7
2022-10-12T11:20:19.876Z,1.7
2022-10-12T11:21:19.967Z,2.1
2022-10-12T11:22:20.566Z,1.4
2022-10-12T11:23:21.185Z,1.6
2022-10-12T11:24:21.785Z,1.2
2022-10-12T11:25:22.391Z,1.8
2022-10-12T11:26:22.990Z,1.7
2022-10-12T11:27:23.590Z,1.8
2022-10-12T11:28:24.354Z,2.3
2022-10-12T11:29:24.944Z,1.9
2022-10-12T11:30:25.547Z,1.9
2022-10-12T11:31:26.152Z,2.1
2022-10-12T11:32:26.749Z,1.7
2022-10-12T11:33:27.351Z,1.6
2022-10-12T11:34:27.950Z,2.2
2022-10-12T11:35:28.551Z,1.4
2022-10-12T11:36:29.150Z,1.7
2022-10-12T11:37:29.754Z,1.9
2022-10-12T11:38:30.354Z,1.6
2022-10-12T11:39:30.957Z,1.8
2022-10-12T11:40:55.575Z,2.2
2022-10-12T11:41:35.858Z,2.1
2022-10-12T11:42:34.640Z,1.9
2022-10-12T11:43:35.243Z,1.8
2022-10-12T11:44:35.862Z,1.7
2022-10-12T11:45:36.464Z,1.7
2022-10-12T11:46:37.063Z,1.7
2022-10-12T11:47:37.663Z,1.9
2022-10-12T11:48:38.264Z,2.1
2022-10-12T11:49:38.864Z,1.6
2022-10-12T11:50:39.466Z,1.6
2022-10-12T11:51:40.067Z,1.7
2022-10-12T11:52:40.669Z,1.6
2022-10-12T11:53:41.276Z,1.9
2022-10-12T11:54:41.891Z,1.7
2022-10-12T11:55:42.492Z,2.0
2022-10-12T11:56:43.097Z,1.7
2022-10-12T11:57:43.739Z,1.9
2022-10-12T11:59:01.447Z,1.7
2022-10-12T11:59:45.910Z,1.7
2022-10-12T12:00:46.510Z,1.6
2022-10-12T12:01:47.115Z,1.7
2022-10-12T12:02:47.732Z,1.7
2022-10-12T12:03:48.361Z,2.1
2022-10-12T12:04:49.049Z,1.8
2022-10-12T12:05:49.551Z,1.2
2022-10-12T12:06:50.150Z,1.8
2022-10-12T12:07:50.751Z,2.2
2022-10-12T12:08:51.372Z,1.6
2022-10-12T12:09:52.213Z,2.1
2022-10-12T12:10:52.969Z,1.6
2022-10-12T12:11:53.570Z,1.9
2022-10-12T12:12:54.170Z,1.7
2022-10-12T12:13:54.771Z,1.7
2022-10-12T12:14:55.377Z,1.6
2022-10-12T12:15:55.974Z,1.9
2022-10-12T12:16:56.573Z,2.1
2022-10-12T12:17:57.177Z,1.9
2022-10-12T12:18:57.778Z,2.1
2022-10-12T12:19:58.377Z,2.5
2022-10-12T12:20:58.979Z,1.9
2022-10-12T12:21:59.578Z,1.6
2022-10-12T12:23:00.180Z,1.9
2022-10-12T12:24:00.783Z,2.0
2022-10-12T12:25:01.383Z,1.8
2022-10-12T12:26:01.986Z,1.9
2022-10-12T12:27:02.607Z,1.9
2022-10-12T12:28:03.299Z,1.9
2022-10-12T12:29:03.827Z,1.6
2022-10-12T12:30:04.492Z,1.8
2022-10-12T12:31:05.079Z,1.5
2022-10-12T12:32:05.680Z,2.0
2022-10-12T12:33:06.281Z,1.8
2022-10-12T12:34:06.884Z,1.9
2022-10-12T12:35:07.504Z,2.2
2022-10-12T12:36:08.106Z,1.5
2022-10-12T12:37:08.706Z,1.6
2022-10-12T12:38:09.310Z,2.0
2022-10-12T12:39:09.914Z,1.7
2022-10-12T12:40:10.531Z,1.8
2022-10-12T12:41:11.152Z,1.9
2022-10-12T12:42:11.762Z,1.6
2022-10-12T12:43:12.357Z,1.8
2022-10-12T12:44:12.958Z,1.8
2022-10-12T12:45:13.578Z,1.9
2022-10-12T12:46:14.181Z,1.5
2022-10-12T12:48:18.422Z,1.6
2022-10-12T12:49:17.967Z,1.8
2022-10-12T12:50:18.571Z,2.0
2022-10-12T12:51:19.173Z,1.7
2022-10-12T12:52:19.774Z,1.6
2022-10-12T12:53:20.372Z,2.1
2022-10-12T12:54:20.977Z,1.7
2022-10-12T12:55:21.578Z,1.8
2022-10-12T12:56:22.179Z,1.5
2022-10-12T12:57:22.803Z,1.8
2022-10-12T12:58:23.454Z,1.8
2022-10-12T12:59:24.047Z,2.0
2022-10-12T13:00:24.766Z,1.5
2022-10-12T13:01:25.427Z,2.0
2022-10-12T13:02:26.013Z,2.1
2022-10-12T13:03:26.630Z,2.1
2022-10-12T13:04:27.232Z,2.1
2022-10-12T13:05:27.834Z,2.0
2022-10-12T13:06:28.437Z,1.6
2022-10-12T13:07:29.233Z,2.1
2022-10-12T13:08:29.917Z,1.7
2022-10-12T13:09:30.516Z,1.8
2022-10-12T13:10:31.118Z,1.7
2022-10-12T13:11:32.006Z,2.3
2022-10-12T13:12:32.607Z,1.6
2022-10-12T13:13:38.023Z,1.7
2022-10-12T13:14:34.806Z,2.1
2022-10-12T13:15:35.424Z,1.7
2022-10-12T13:17:30.105Z,2.3
2022-10-12T13:17:37.486Z,1.7
2022-10-12T13:18:51.922Z,1.8
2022-10-12T13:19:39.686Z,1.7
2022-10-12T13:20:40.284Z,1.3
2022-10-12T13:21:40.885Z,1.8
2022-10-12T13:22:41.487Z,1.7
2022-10-12T13:23:42.086Z,1.7
2022-10-12T13:24:42.686Z,1.7
2022-10-12T13:25:43.287Z,2.0
2022-10-12T13:26:43.891Z,2.2
2022-10-12T13:27:44.489Z,1.7
2022-10-12T13:28:45.155Z,1.8
2022-10-12T13:29:45.729Z,1.8
2022-10-12T13:30:46.350Z,1.6
2022-10-12T13:31:46.971Z,1.6
2022-10-12T13:32:47.572Z,1.7
2022-10-12T13:33:48.172Z,1.9
2022-10-12T13:34:48.794Z,1.7
2022-10-12T13:35:49.392Z,1.6
2022-10-12T13:36:50.059Z,1.6
2022-10-12T13:37:50.616Z,2.3
2022-10-12T13:38:51.226Z,1.3
2022-10-12T13:39:51.838Z,1.7
2022-10-12T13:40:52.441Z,1.5
2022-10-12T13:41:53.042Z,1.6
2022-10-12T13:42:53.641Z,1.6
2022-10-12T13:43:54.240Z,1.3
2022-10-12T13:44:54.845Z,1.8
2022-10-12T13:45:55.446Z,1.8
2022-10-12T13:46:56.047Z,1.2
2022-10-12T13:47:56.669Z,1.9
2022-10-12T13:49:00.124Z,2.5
2022-10-12T13:49:58.736Z,1.7
2022-10-12T13:50:59.422Z,1.9
2022-10-12T13:52:00.007Z,1.6
2022-10-12T13:53:00.603Z,1.6
2022-10-12T13:54:01.194Z,1.9
2022-10-12T13:55:01.787Z,1.6
2022-10-12T13:56:02.388Z,2.1